Time,TemperatureF,DewpointF,PressureIn,WindDirection,WindDirectionDegrees,WindSpeedMPH,WindSpeedGustMPH,Humidity,HourlyPrecipIn,Conditions,Clouds,dailyrainin,SoftwareType,DateUTC
2013-08-26 00:03:00,80.4,72.6,29.12,South,180,3.4,4.3,77,0.00,,,0.00,VWS V14.01,2013-08-26 05:03:00,
2013-08-26 00:08:00,80.2,72.4,29.09,South,180,0.0,3.6,77,0.00,,,0.00,VWS V14.01,2013-08-26 05:08:00,
2013-08-26 00:13:00,80.1,72.2,29.09,SE,135,2.5,2.5,77,0.00,,,0.00,VWS V14.01,2013-08-26 05:13:00,
2013-08-26 00:18:00,80.1,72.2,29.09,South,180,4.5,4.5,77,0.00,,,0.00,VWS V14.01,2013-08-26 05:18:00,
2013-08-26 00:24:00,80.1,71.8,29.09,SSE,158,2.7,2.7,76,0.00,,,0.00,VWS V14.01,2013-08-26 05:24:00,
2013-08-26 00:29:00,80.2,72.0,29.09,SSE,158,1.1,2.7,76,0.00,,,0.00,VWS V14.01,2013-08-26 05:29:00,
2013-08-26 00:34:00,80.2,72.0,29.09,South,180,1.3,2.5,76,0.00,,,0.00,VWS V14.01,2013-08-26 05:34:00,
2013-08-26 00:39:00,80.4,71.8,29.12,ESE,112,4.7,4.7,75,0.00,,,0.00,VWS V14.01,2013-08-26 05:39:00,
2013-08-26 00:44:00,80.6,71.9,29.12,SSE,158,1.1,4.3,75,0.00,,,0.00,VWS V14.01,2013-08-26 05:44:00,
2013-08-26 00:49:00,80.4,71.8,29.12,SE,135,0.9,1.6,75,0.00,,,0.00,VWS V14.01,2013-08-26 05:49:00,
2013-08-26 00:54:00,80.2,71.6,29.12,SSE,158,1.1,2.9,75,0.00,,,0.00,VWS V14.01,2013-08-26 05:54:00,
2013-08-26 00:59:00,80.1,71.4,29.12,SSE,158,0.9,0.9,75,0.00,,,0.00,VWS V14.01,2013-08-26 05:59:00,
2013-08-26 01:04:00,79.9,71.6,29.12,ESE,112,0.0,1.1,76,0.00,,,0.00,VWS V14.01,2013-08-26 06:04:00,
2013-08-26 01:09:00,79.7,71.5,29.12,SE,135,0.9,0.9,76,0.00,,,0.00,VWS V14.01,2013-08-26 06:09:00,
2013-08-26 01:14:00,79.3,71.1,29.12,WSW,248,0.0,2.7,76,0.00,,,0.00,VWS V14.01,2013-08-26 06:14:00,
2013-08-26 01:19:00,79.0,71.2,29.12,WSW,248,0.0,2.7,77,0.00,,,0.00,VWS V14.01,2013-08-26 06:19:00,
2013-08-26 01:24:00,78.6,71.2,29.12,WSW,248,0.0,0.0,78,0.00,,,0.00,VWS V14.01,2013-08-26 06:24:00,
2013-08-26 01:29:00,78.4,71.0,29.12,SSW,202,2.0,2.7,78,0.00,,,0.00,VWS V14.01,2013-08-26 06:29:00,
2013-08-26 01:34:00,78.3,71.2,29.12,ESE,112,0.0,2.0,79,0.00,,,0.00,VWS V14.01,2013-08-26 06:34:00,
2013-08-26 01:39:00,78.1,71.0,29.12,ESE,112,0.0,0.0,79,0.00,,,0.00,VWS V14.01,2013-08-26 06:39:00,
2013-08-26 01:44:00,77.9,70.9,29.12,ESE,112,0.0,0.0,79,0.00,,,0.00,VWS V14.01,2013-08-26 06:44:00,
2013-08-26 01:49:00,77.5,70.5,29.12,SE,135,0.0,0.0,79,0.00,,,0.00,VWS V14.01,2013-08-26 06:49:00,
2013-08-26 01:54:00,77.2,70.5,29.12,East,90,0.0,0.0,80,0.00,,,0.00,VWS V14.01,2013-08-26 06:54:00,
2013-08-26 02:00:00,77.0,70.7,29.12,South,180,0.0,0.0,81,0.00,,,0.00,VWS V14.01,2013-08-26 07:00:00,
2013-08-26 02:05:00,77.0,70.7,29.12,South,180,0.0,0.0,81,0.00,,,0.00,VWS V14.01,2013-08-26 07:05:00,
2013-08-26 02:10:00,77.0,71.1,29.12,SSE,158,1.3,2.9,82,0.00,,,0.00,VWS V14.01,2013-08-26 07:10:00,
2013-08-26 02:15:00,77.0,70.7,29.12,SSE,158,1.3,1.3,81,0.00,,,0.00,VWS V14.01,2013-08-26 07:15:00,
2013-08-26 02:20:00,77.2,70.9,29.12,East,90,0.0,1.3,81,0.00,,,0.00,VWS V14.01,2013-08-26 07:20:00,
2013-08-26 02:25:00,77.0,71.1,29.12,East,90,0.0,0.0,82,0.00,,,0.00,VWS V14.01,2013-08-26 07:25:00,
2013-08-26 02:30:00,77.0,71.1,29.12,East,90,0.0,0.0,82,0.00,,,0.00,VWS V14.01,2013-08-26 07:30:00,
2013-08-26 02:35:00,76.8,71.3,29.12,SE,135,0.0,0.0,83,0.00,,,0.00,VWS V14.01,2013-08-26 07:35:00,
2013-08-26 02:40:00,76.8,71.3,29.12,ESE,112,0.0,0.0,83,0.00,,,0.00,VWS V14.01,2013-08-26 07:40:00,
2013-08-26 02:45:00,76.6,71.1,29.12,ESE,112,0.0,0.0,83,0.00,,,0.00,VWS V14.01,2013-08-26 07:45:00,
2013-08-26 02:50:00,76.6,71.1,29.12,ESE,112,0.9,0.9,83,0.00,,,0.00,VWS V14.01,2013-08-26 07:50:00,
2013-08-26 02:55:00,76.6,71.1,29.12,ESE,112,0.9,0.9,83,0.00,,,0.00,VWS V14.01,2013-08-26 07:55:00,
2013-08-26 03:00:00,76.5,71.3,29.12,ESE,112,0.0,0.9,84,0.00,,,0.00,VWS V14.01,2013-08-26 08:00:00,
2013-08-26 03:05:00,76.3,71.1,29.12,SW,225,0.0,0.9,84,0.00,,,0.00,VWS V14.01,2013-08-26 08:05:00,
2013-08-26 03:10:00,76.5,71.3,29.12,SSE,158,0.0,2.2,84,0.00,,,0.00,VWS V14.01,2013-08-26 08:10:00,
2013-08-26 03:15:00,76.5,71.6,29.12,South,180,0.9,0.9,85,0.00,,,0.00,VWS V14.01,2013-08-26 08:15:00,
2013-08-26 03:20:00,76.6,71.8,29.12,South,180,4.3,4.3,85,0.00,,,0.00,VWS V14.01,2013-08-26 08:20:00,
2013-08-26 03:25:00,77.2,72.3,29.12,SSE,158,1.3,1.3,85,0.00,,,0.00,VWS V14.01,2013-08-26 08:25:00,
2013-08-26 03:30:00,77.4,72.5,29.12,South,180,3.6,3.6,85,0.00,,,0.00,VWS V14.01,2013-08-26 08:30:00,
2013-08-26 03:35:00,77.7,72.5,29.12,SSE,158,0.9,0.9,84,0.00,,,0.00,VWS V14.01,2013-08-26 08:35:00,
2013-08-26 03:40:00,77.7,72.5,29.12,WSW,248,0.0,0.0,84,0.00,,,0.00,VWS V14.01,2013-08-26 08:40:00,
2013-08-26 03:45:00,77.9,72.7,29.12,WSW,248,0.0,0.0,84,0.00,,,0.00,VWS V14.01,2013-08-26 08:45:00,
2013-08-26 03:50:00,78.1,72.5,29.12,SSE,158,0.0,0.0,83,0.00,,,0.00,VWS V14.01,2013-08-26 08:50:00,
2013-08-26 03:55:00,78.1,72.5,29.12,SW,225,1.3,1.3,83,0.00,,,0.00,VWS V14.01,2013-08-26 08:55:00,
2013-08-26 04:00:00,78.1,72.5,29.12,SSE,158,0.0,0.0,83,0.00,,,0.00,VWS V14.01,2013-08-26 09:00:00,
2013-08-26 04:05:00,78.1,72.5,29.12,SSW,202,1.1,1.1,83,0.00,,,0.00,VWS V14.01,2013-08-26 09:05:00,
2013-08-26 04:10:00,77.9,72.7,29.12,ESE,112,0.0,1.1,84,0.00,,,0.00,VWS V14.01,2013-08-26 09:10:00,
2013-08-26 04:15:00,78.1,72.9,29.12,SSE,158,1.1,1.1,84,0.00,,,0.00,VWS V14.01,2013-08-26 09:15:00,
2013-08-26 04:20:00,78.1,72.9,29.12,South,180,2.9,2.9,84,0.00,,,0.00,VWS V14.01,2013-08-26 09:20:00,
2013-08-26 04:26:00,78.3,73.0,29.09,SSE,158,1.3,1.3,84,0.00,,,0.00,VWS V14.01,2013-08-26 09:26:00,
2013-08-26 04:31:00,78.3,73.0,29.09,NW,315,3.4,3.4,84,0.00,,,0.00,VWS V14.01,2013-08-26 09:31:00,
2013-08-26 04:36:00,78.4,73.2,29.09,East,90,0.0,0.0,84,0.00,,,0.00,VWS V14.01,2013-08-26 09:36:00,
2013-08-26 04:41:00,78.3,73.0,29.12,SSE,158,0.0,4.0,84,0.00,,,0.00,VWS V14.01,2013-08-26 09:41:00,
2013-08-26 04:46:00,78.3,73.0,29.12,ENE,68,0.0,1.3,84,0.00,,,0.00,VWS V14.01,2013-08-26 09:46:00,
2013-08-26 04:51:00,78.3,73.0,29.12,SSW,202,1.1,1.1,84,0.00,,,0.00,VWS V14.01,2013-08-26 09:51:00,
2013-08-26 04:56:00,78.3,73.0,29.12,SSE,158,0.0,0.0,84,0.00,,,0.00,VWS V14.01,2013-08-26 09:56:00,
2013-08-26 05:01:00,78.3,73.0,29.12,SSE,158,2.5,2.5,84,0.00,,,0.00,VWS V14.01,2013-08-26 10:01:00,
2013-08-26 05:06:00,78.3,73.0,29.12,South,180,2.5,2.5,84,0.00,,,0.00,VWS V14.01,2013-08-26 10:06:00,
2013-08-26 05:11:00,78.1,72.9,29.12,South,180,0.0,0.0,84,0.00,,,0.00,VWS V14.01,2013-08-26 10:11:00,
2013-08-26 05:16:00,78.1,72.9,29.12,NNW,338,0.0,0.0,84,0.00,,,0.00,VWS V14.01,2013-08-26 10:16:00,
2013-08-26 05:21:00,78.1,72.9,29.12,WSW,248,0.0,2.9,84,0.00,,,0.00,VWS V14.01,2013-08-26 10:21:00,
2013-08-26 05:26:00,78.3,73.4,29.12,SW,225,0.9,0.9,85,0.00,,,0.00,VWS V14.01,2013-08-26 10:26:00,
2013-08-26 05:31:00,78.3,73.0,29.12,SSW,202,1.1,1.1,84,0.00,,,0.00,VWS V14.01,2013-08-26 10:31:00,
2013-08-26 05:36:00,78.3,73.0,29.12,SSE,158,0.0,1.3,84,0.00,,,0.00,VWS V14.01,2013-08-26 10:36:00,
2013-08-26 05:41:00,78.3,73.0,29.14,South,180,1.6,1.6,84,0.00,,,0.00,VWS V14.01,2013-08-26 10:41:00,
2013-08-26 05:46:00,78.3,73.0,29.14,South,180,1.6,1.6,84,0.00,,,0.00,VWS V14.01,2013-08-26 10:46:00,
2013-08-26 05:51:00,78.1,73.2,29.14,South,180,1.6,1.6,85,0.00,,,0.00,VWS V14.01,2013-08-26 10:51:00,
2013-08-26 05:56:00,77.9,73.0,29.12,SSE,158,0.0,0.0,85,0.00,,,0.00,VWS V14.01,2013-08-26 10:56:00,
2013-08-26 06:01:00,77.9,73.0,29.12,ESE,112,0.0,0.0,85,0.00,,,0.00,VWS V14.01,2013-08-26 11:01:00,
2013-08-26 06:06:00,77.9,73.0,29.12,South,180,0.0,2.2,85,0.00,,,0.00,VWS V14.01,2013-08-26 11:06:00,
2013-08-26 06:11:00,77.9,73.0,29.12,SSW,202,3.8,3.8,85,0.00,,,0.00,VWS V14.01,2013-08-26 11:11:00,
2013-08-26 06:16:00,77.9,73.0,29.12,SSE,158,2.5,2.5,85,0.00,,,0.00,VWS V14.01,2013-08-26 11:16:00,
2013-08-26 06:21:00,77.9,73.0,29.12,SE,135,0.0,2.5,85,0.00,,,0.00,VWS V14.01,2013-08-26 11:21:00,
2013-08-26 06:26:00,77.7,72.8,29.12,SSW,202,2.7,2.7,85,0.00,,,0.00,VWS V14.01,2013-08-26 11:26:00,
2013-08-26 06:31:00,77.7,72.8,29.12,South,180,0.0,0.0,85,0.00,,,0.00,VWS V14.01,2013-08-26 11:31:00,
2013-08-26 06:36:00,77.5,72.7,29.12,South,180,0.0,0.0,85,0.00,,,0.00,VWS V14.01,2013-08-26 11:36:00,
2013-08-26 06:41:00,77.5,72.7,29.12,South,180,0.0,0.0,85,0.00,,,0.00,VWS V14.01,2013-08-26 11:41:00,
2013-08-26 06:46:00,77.7,72.8,29.12,SSW,202,0.0,0.0,85,0.00,,,0.00,VWS V14.01,2013-08-26 11:46:00,
2013-08-26 06:51:00,77.7,72.8,29.12,SE,135,0.0,1.1,85,0.00,,,0.00,VWS V14.01,2013-08-26 11:51:00,
2013-08-26 06:57:00,77.7,72.8,29.12,South,180,0.0,1.6,85,0.00,,,0.00,VWS V14.01,2013-08-26 11:57:00,
2013-08-26 07:02:00,77.5,73.0,29.12,South,180,0.0,0.0,86,0.00,,,0.00,VWS V14.01,2013-08-26 12:02:00,
2013-08-26 07:07:00,77.5,73.0,29.12,South,180,0.0,0.9,86,0.00,,,0.00,VWS V14.01,2013-08-26 12:07:00,
2013-08-26 07:12:00,77.5,73.0,29.14,South,180,0.0,0.0,86,0.00,,,0.00,VWS V14.01,2013-08-26 12:12:00,
2013-08-26 07:17:00,77.4,72.8,29.14,South,180,0.0,0.0,86,0.00,,,0.00,VWS V14.01,2013-08-26 12:17:00,
2013-08-26 07:22:00,77.4,72.8,29.14,NE,45,0.0,0.0,86,0.00,,,0.00,VWS V14.01,2013-08-26 12:22:00,
2013-08-26 07:27:00,77.2,72.7,29.14,NE,45,0.0,0.0,86,0.00,,,0.00,VWS V14.01,2013-08-26 12:27:00,
2013-08-26 07:32:00,77.2,73.0,29.14,NE,45,0.0,0.0,87,0.00,,,0.00,VWS V14.01,2013-08-26 12:32:00,
2013-08-26 07:37:00,77.2,73.0,29.14,NE,45,0.0,0.0,87,0.00,,,0.00,VWS V14.01,2013-08-26 12:37:00,
2013-08-26 07:42:00,77.2,73.0,29.14,NE,45,0.0,0.0,87,0.00,,,0.00,VWS V14.01,2013-08-26 12:42:00,
2013-08-26 07:47:00,77.0,73.2,29.14,NE,45,0.0,0.0,88,0.00,,,0.00,VWS V14.01,2013-08-26 12:47:00,
2013-08-26 07:52:00,77.2,73.3,29.14,NE,45,0.0,0.0,88,0.00,,,0.00,VWS V14.01,2013-08-26 12:52:00,
2013-08-26 07:57:00,77.2,73.3,29.14,NE,45,0.0,0.0,88,0.00,,,0.00,VWS V14.01,2013-08-26 12:57:00,
2013-08-26 08:02:00,77.2,73.3,29.14,NE,45,0.0,0.0,88,0.00,,,0.00,VWS V14.01,2013-08-26 13:02:00,
2013-08-26 08:07:00,77.4,73.9,29.14,NE,45,0.0,0.0,89,0.00,,,0.00,VWS V14.01,2013-08-26 13:07:00,
2013-08-26 08:12:00,77.4,73.9,29.12,NE,45,0.0,0.0,89,0.00,,,0.00,VWS V14.01,2013-08-26 13:12:00,
2013-08-26 08:17:00,77.5,74.1,29.12,NE,45,0.0,0.0,89,0.00,,,0.00,VWS V14.01,2013-08-26 13:17:00,
2013-08-26 08:22:00,77.5,74.1,29.12,NE,45,0.0,0.0,89,0.00,,,0.00,VWS V14.01,2013-08-26 13:22:00,
2013-08-26 08:27:00,77.7,74.2,29.14,NE,45,0.0,0.0,89,0.00,,,0.00,VWS V14.01,2013-08-26 13:27:00,
2013-08-26 08:32:00,77.9,74.1,29.14,NE,45,0.0,0.0,88,0.00,,,0.00,VWS V14.01,2013-08-26 13:32:00,
2013-08-26 08:37:00,77.9,74.1,29.14,NE,45,0.0,0.0,88,0.00,,,0.00,VWS V14.01,2013-08-26 13:37:00,
2013-08-26 08:42:00,78.1,74.2,29.14,NE,45,0.0,0.0,88,0.00,,,0.00,VWS V14.01,2013-08-26 13:42:00,
2013-08-26 08:47:00,78.1,74.2,29.14,NE,45,0.0,0.0,88,0.00,,,0.00,VWS V14.01,2013-08-26 13:47:00,
2013-08-26 08:52:00,78.3,74.4,29.14,East,90,2.2,2.2,88,0.00,,,0.00,VWS V14.01,2013-08-26 13:52:00,
2013-08-26 08:57:00,78.4,74.6,29.14,NE,45,3.1,3.1,88,0.00,,,0.00,VWS V14.01,2013-08-26 13:57:00,
2013-08-26 09:02:00,78.8,74.6,29.14,NE,45,3.1,3.1,87,0.00,,,0.00,VWS V14.01,2013-08-26 14:02:00,
2013-08-26 09:07:00,79.5,75.3,29.14,ENE,68,0.0,0.0,87,0.00,,,0.00,VWS V14.01,2013-08-26 14:07:00,
2013-08-26 09:12:00,80.1,75.5,29.14,WSW,248,2.5,3.1,86,0.00,,,0.00,VWS V14.01,2013-08-26 14:12:00,
2013-08-26 09:17:00,80.6,75.3,29.14,WSW,248,2.5,2.5,84,0.00,,,0.00,VWS V14.01,2013-08-26 14:17:00,
2013-08-26 09:22:00,81.0,75.3,29.14,SE,135,2.7,2.7,83,0.00,,,0.00,VWS V14.01,2013-08-26 14:22:00,
2013-08-26 09:28:00,81.5,75.5,29.14,ENE,68,2.5,2.7,82,0.00,,,0.00,VWS V14.01,2013-08-26 14:28:00,
2013-08-26 09:33:00,82.0,75.3,29.14,SE,135,1.3,1.3,80,0.00,,,0.00,VWS V14.01,2013-08-26 14:33:00,
2013-08-26 09:38:00,82.2,75.1,29.12,North,0,4.9,4.9,79,0.00,,,0.00,VWS V14.01,2013-08-26 14:38:00,
2013-08-26 09:43:00,82.2,74.7,29.12,South,180,3.4,3.4,78,0.00,,,0.00,VWS V14.01,2013-08-26 14:43:00,
2013-08-26 09:48:00,82.4,74.5,29.12,NE,45,4.0,4.7,77,0.00,,,0.00,VWS V14.01,2013-08-26 14:48:00,
2013-08-26 09:53:00,82.8,74.4,29.14,SSE,158,3.6,4.7,76,0.00,,,0.00,VWS V14.01,2013-08-26 14:53:00,
2013-08-26 09:58:00,82.9,75.0,29.14,ENE,68,2.0,2.0,77,0.00,,,0.00,VWS V14.01,2013-08-26 14:58:00,
2013-08-26 10:03:00,83.5,74.7,29.14,ENE,68,5.4,5.4,75,0.00,,,0.00,VWS V14.01,2013-08-26 15:03:00,
2013-08-26 10:08:00,83.8,75.1,29.12,ENE,68,5.4,5.4,75,0.00,,,0.00,VWS V14.01,2013-08-26 15:08:00,
2013-08-26 10:13:00,84.2,75.0,29.12,North,0,4.0,5.4,74,0.00,,,0.00,VWS V14.01,2013-08-26 15:13:00,
2013-08-26 10:18:00,84.9,75.3,29.12,SE,135,2.9,3.6,73,0.00,,,0.00,VWS V14.01,2013-08-26 15:18:00,
2013-08-26 10:23:00,84.9,74.9,29.14,SSW,202,4.7,4.7,72,0.00,,,0.00,VWS V14.01,2013-08-26 15:23:00,
2013-08-26 10:28:00,85.3,74.4,29.14,East,90,2.9,3.4,70,0.00,,,0.00,VWS V14.01,2013-08-26 15:28:00,
2013-08-26 10:33:00,85.6,75.2,29.14,NW,315,2.0,2.0,71,0.00,,,0.00,VWS V14.01,2013-08-26 15:33:00,
2013-08-26 10:38:00,86.4,75.0,29.14,NE,45,2.7,5.4,69,0.00,,,0.00,VWS V14.01,2013-08-26 15:38:00,
2013-08-26 10:43:00,86.5,75.2,29.14,ESE,112,3.8,4.7,69,0.00,,,0.00,VWS V14.01,2013-08-26 15:43:00,
2013-08-26 10:48:00,86.9,75.5,29.14,NE,45,2.9,2.9,69,0.00,,,0.00,VWS V14.01,2013-08-26 15:48:00,
2013-08-26 10:53:00,87.1,75.2,29.14,North,0,0.0,3.8,68,0.00,,,0.00,VWS V14.01,2013-08-26 15:53:00,
2013-08-26 10:58:00,87.4,75.1,29.14,WNW,292,2.7,6.0,67,0.00,,,0.00,VWS V14.01,2013-08-26 15:58:00,
2013-08-26 11:03:00,87.6,74.9,29.14,SW,225,3.1,4.9,66,0.00,,,0.00,VWS V14.01,2013-08-26 16:03:00,
2013-08-26 11:08:00,87.3,74.5,29.14,SE,135,3.6,6.0,66,0.00,,,0.00,VWS V14.01,2013-08-26 16:08:00,
2013-08-26 11:13:00,87.6,75.3,29.14,South,180,2.7,7.4,67,0.00,,,0.00,VWS V14.01,2013-08-26 16:13:00,
2013-08-26 11:18:00,87.8,75.0,29.14,SW,225,3.8,5.4,66,0.00,,,0.00,VWS V14.01,2013-08-26 16:18:00,
2013-08-26 11:23:00,88.0,74.8,29.14,ENE,68,3.4,6.9,65,0.00,,,0.00,VWS V14.01,2013-08-26 16:23:00,
2013-08-26 11:28:00,88.3,75.6,29.14,NE,45,2.7,3.8,66,0.00,,,0.00,VWS V14.01,2013-08-26 16:28:00,
2013-08-26 11:33:00,88.7,75.0,29.14,NNW,338,3.4,4.9,64,0.00,,,0.00,VWS V14.01,2013-08-26 16:33:00,
2013-08-26 11:38:00,88.9,75.1,29.12,WNW,292,2.0,4.0,64,0.00,,,0.00,VWS V14.01,2013-08-26 16:38:00,
2013-08-26 11:43:00,89.2,75.5,29.12,NW,315,3.1,5.6,64,0.00,,,0.00,VWS V14.01,2013-08-26 16:43:00,
2013-08-26 11:48:00,89.2,75.0,29.12,SSE,158,2.7,5.4,63,0.00,,,0.00,VWS V14.01,2013-08-26 16:48:00,
2013-08-26 11:53:00,89.2,75.0,29.12,SE,135,1.6,5.4,63,0.00,,,0.00,VWS V14.01,2013-08-26 16:53:00,
2013-08-26 11:58:00,90.0,75.7,29.12,ENE,68,2.7,3.8,63,0.00,,,0.00,VWS V14.01,2013-08-26 16:58:00,
2013-08-26 12:04:00,90.0,75.7,29.12,NNE,22,4.7,5.8,63,0.00,,,0.00,VWS V14.01,2013-08-26 17:04:00,
2013-08-26 12:09:00,89.8,75.0,29.12,South,180,1.3,4.0,62,0.00,,,0.00,VWS V14.01,2013-08-26 17:09:00,
2013-08-26 12:14:00,90.5,75.2,29.12,SSE,158,2.9,4.9,61,0.00,,,0.00,VWS V14.01,2013-08-26 17:14:00,
2013-08-26 12:19:00,91.2,76.4,29.12,ENE,68,1.3,3.4,62,0.00,,,0.00,VWS V14.01,2013-08-26 17:19:00,
2013-08-26 12:24:00,91.2,75.9,29.12,SSW,202,2.5,4.9,61,0.00,,,0.00,VWS V14.01,2013-08-26 17:24:00,
2013-08-26 12:29:00,91.2,75.4,29.12,SSE,158,3.4,4.9,60,0.00,,,0.00,VWS V14.01,2013-08-26 17:29:00,
2013-08-26 12:34:00,91.0,75.2,29.12,NW,315,3.1,6.0,60,0.00,,,0.00,VWS V14.01,2013-08-26 17:34:00,
2013-08-26 12:39:00,91.4,75.6,29.09,SW,225,2.0,6.0,60,0.00,,,0.00,VWS V14.01,2013-08-26 17:39:00,
2013-08-26 12:44:00,91.8,75.9,29.09,NW,315,2.5,3.6,60,0.00,,,0.00,VWS V14.01,2013-08-26 17:44:00,
2013-08-26 12:49:00,91.6,75.2,29.09,SE,135,1.6,5.8,59,0.00,,,0.00,VWS V14.01,2013-08-26 17:49:00,
2013-08-26 12:54:00,91.8,75.4,29.09,NE,45,2.2,6.5,59,0.00,,,0.00,VWS V14.01,2013-08-26 17:54:00,
2013-08-26 12:59:00,92.1,75.7,29.09,East,90,2.9,3.8,59,0.00,,,0.00,VWS V14.01,2013-08-26 17:59:00,
2013-08-26 13:04:00,92.3,75.4,29.09,ENE,68,3.1,6.9,58,0.00,,,0.00,VWS V14.01,2013-08-26 18:04:00,
2013-08-26 13:09:00,92.5,75.6,29.09,SSE,158,3.6,7.8,58,0.00,,,0.00,VWS V14.01,2013-08-26 18:09:00,
2013-08-26 13:14:00,92.7,74.7,29.09,NW,315,3.4,9.0,56,0.00,,,0.00,VWS V14.01,2013-08-26 18:14:00,
2013-08-26 13:19:00,93.0,75.0,29.09,NW,315,4.0,6.3,56,0.00,,,0.00,VWS V14.01,2013-08-26 18:19:00,
2013-08-26 13:24:00,92.5,74.0,29.09,WSW,248,3.4,8.5,55,0.00,,,0.00,VWS V14.01,2013-08-26 18:24:00,
2013-08-26 13:29:00,92.8,74.3,29.09,East,90,2.7,5.8,55,0.00,,,0.00,VWS V14.01,2013-08-26 18:29:00,
2013-08-26 13:34:00,92.8,74.3,29.09,ESE,112,2.7,6.7,55,0.00,,,0.00,VWS V14.01,2013-08-26 18:34:00,
2013-08-26 13:39:00,93.6,75.0,29.09,South,180,3.4,6.9,55,0.00,,,0.00,VWS V14.01,2013-08-26 18:39:00,
2013-08-26 13:44:00,94.1,74.9,29.09,West,270,3.4,6.9,54,0.00,,,0.00,VWS V14.01,2013-08-26 18:44:00,
2013-08-26 13:49:00,94.3,75.1,29.09,ENE,68,3.4,4.3,54,0.00,,,0.00,VWS V14.01,2013-08-26 18:49:00,
2013-08-26 13:54:00,94.1,74.9,29.09,ENE,68,4.9,4.9,54,0.00,,,0.00,VWS V14.01,2013-08-26 18:54:00,
2013-08-26 13:59:00,94.3,75.1,29.09,SSW,202,3.6,5.4,54,0.00,,,0.00,VWS V14.01,2013-08-26 18:59:00,
2013-08-26 14:05:00,94.8,76.1,29.09,SE,135,1.1,5.6,55,0.00,,,0.00,VWS V14.01,2013-08-26 19:05:00,
2013-08-26 14:10:00,95.4,75.5,29.06,NNE,22,2.2,4.3,53,0.00,,,0.00,VWS V14.01,2013-08-26 19:10:00,
2013-08-26 14:15:00,95.2,74.8,29.06,East,90,4.3,5.6,52,0.00,,,0.00,VWS V14.01,2013-08-26 19:15:00,
2013-08-26 14:20:00,94.8,74.5,29.06,SW,225,6.5,7.4,52,0.00,,,0.00,VWS V14.01,2013-08-26 19:20:00,
2013-08-26 14:25:00,94.8,74.5,29.06,SW,225,1.6,8.5,52,0.00,,,0.00,VWS V14.01,2013-08-26 19:25:00,
2013-08-26 14:30:00,95.4,75.5,29.06,WNW,292,3.1,4.3,53,0.00,,,0.00,VWS V14.01,2013-08-26 19:30:00,
2013-08-26 14:35:00,95.9,75.4,29.06,South,180,2.5,3.1,52,0.00,,,0.00,VWS V14.01,2013-08-26 19:35:00,
2013-08-26 14:40:00,96.3,75.8,29.06,NE,45,2.7,8.5,52,0.00,,,0.00,VWS V14.01,2013-08-26 19:40:00,
2013-08-26 14:45:00,96.4,75.4,29.06,WSW,248,2.0,6.3,51,0.00,,,0.00,VWS V14.01,2013-08-26 19:45:00,
2013-08-26 14:50:00,96.4,75.4,29.06,ESE,112,2.5,4.9,51,0.00,,,0.00,VWS V14.01,2013-08-26 19:50:00,
2013-08-26 14:55:00,95.7,74.7,29.03,SW,225,3.6,6.5,51,0.00,,,0.00,VWS V14.01,2013-08-26 19:55:00,
2013-08-26 15:00:00,96.4,75.4,29.03,SSE,158,8.1,8.1,51,0.00,,,0.00,VWS V14.01,2013-08-26 20:00:00,
2013-08-26 15:05:00,96.8,75.1,29.03,SSE,158,3.4,8.1,50,0.00,,,0.00,VWS V14.01,2013-08-26 20:05:00,
2013-08-26 15:10:00,97.0,75.3,29.03,SSW,202,1.6,1.6,50,0.00,,,0.00,VWS V14.01,2013-08-26 20:10:00,
2013-08-26 15:15:00,97.0,74.7,29.03,SSW,202,4.0,4.0,49,0.00,,,0.00,VWS V14.01,2013-08-26 20:15:00,
2013-08-26 15:20:00,97.2,74.8,29.03,NE,45,3.1,4.0,49,0.00,,,0.00,VWS V14.01,2013-08-26 20:20:00,
2013-08-26 15:25:00,97.2,74.8,29.00,SW,225,5.8,5.8,49,0.00,,,0.00,VWS V14.01,2013-08-26 20:25:00,
2013-08-26 15:30:00,97.0,74.1,29.00,SW,225,3.6,3.6,48,0.00,,,0.00,VWS V14.01,2013-08-26 20:30:00,
2013-08-26 15:35:00,96.6,74.3,29.00,NE,45,2.2,2.2,49,0.00,,,0.00,VWS V14.01,2013-08-26 20:35:00,
2013-08-26 15:40:00,97.2,74.8,29.00,WSW,248,2.5,3.1,49,0.00,,,0.00,VWS V14.01,2013-08-26 20:40:00,
2013-08-26 15:45:00,97.7,75.9,29.00,WNW,292,1.3,2.2,50,0.00,,,0.00,VWS V14.01,2013-08-26 20:45:00,
2013-08-26 15:50:00,98.1,74.4,29.00,South,180,3.4,5.4,47,0.00,,,0.00,VWS V14.01,2013-08-26 20:50:00,
2013-08-26 15:55:00,98.2,74.6,29.00,ESE,112,4.0,4.3,47,0.00,,,0.00,VWS V14.01,2013-08-26 20:55:00,
2013-08-26 16:00:00,98.1,74.4,29.00,North,0,1.3,7.4,47,0.00,,,0.00,VWS V14.01,2013-08-26 21:00:00,
2013-08-26 16:05:00,97.5,73.3,29.00,SSE,158,3.8,5.4,46,0.00,,,0.00,VWS V14.01,2013-08-26 21:05:00,
2013-08-26 16:10:00,98.2,73.9,29.03,NW,315,1.1,1.6,46,0.00,,,0.00,VWS V14.01,2013-08-26 21:10:00,
2013-08-26 16:15:00,99.0,73.9,29.03,SSE,158,1.3,2.2,45,0.00,,,0.00,VWS V14.01,2013-08-26 21:15:00,
2013-08-26 16:20:00,99.0,73.2,29.03,NW,315,3.6,4.7,44,0.00,,,0.00,VWS V14.01,2013-08-26 21:20:00,
2013-08-26 16:25:00,98.6,73.6,29.03,WNW,292,3.4,6.0,45,0.00,,,0.00,VWS V14.01,2013-08-26 21:25:00,
2013-08-26 16:31:00,97.9,72.9,29.03,ESE,112,5.6,5.6,45,0.00,,,0.00,VWS V14.01,2013-08-26 21:31:00,
2013-08-26 16:36:00,97.5,73.3,29.03,West,270,3.8,3.8,46,0.00,,,0.00,VWS V14.01,2013-08-26 21:36:00,
2013-08-26 16:41:00,96.3,72.8,29.03,SSW,202,4.0,4.3,47,0.00,,,0.00,VWS V14.01,2013-08-26 21:41:00,
2013-08-26 16:46:00,96.1,73.8,29.03,SW,225,1.6,1.6,49,0.00,,,0.00,VWS V14.01,2013-08-26 21:46:00,
2013-08-26 16:51:00,96.1,73.8,29.03,South,180,2.5,3.4,49,0.00,,,0.00,VWS V14.01,2013-08-26 21:51:00,
2013-08-26 16:56:00,96.6,74.3,29.03,WNW,292,2.0,3.4,49,0.17,,,0.17,VWS V14.01,2013-08-26 21:56:00,
2013-08-26 17:01:00,97.3,74.4,29.03,West,270,2.2,4.3,48,0.17,,,0.17,VWS V14.01,2013-08-26 22:01:00,
2013-08-26 17:06:00,97.7,74.1,29.03,NNW,338,2.0,7.8,47,0.17,,,0.17,VWS V14.01,2013-08-26 22:06:00,
2013-08-26 17:11:00,97.7,74.7,29.03,NW,315,3.4,6.3,48,0.17,,,0.17,VWS V14.01,2013-08-26 22:11:00,
2013-08-26 17:16:00,97.5,74.5,29.03,SSE,158,4.0,4.0,48,0.17,,,0.17,VWS V14.01,2013-08-26 22:16:00,
2013-08-26 17:21:00,97.2,73.6,29.03,WSW,248,5.4,5.4,47,0.17,,,0.17,VWS V14.01,2013-08-26 22:21:00,
2013-08-26 17:26:00,97.0,74.1,29.03,SW,225,0.0,5.4,48,0.17,,,0.17,VWS V14.01,2013-08-26 22:26:00,
2013-08-26 17:31:00,97.0,74.7,29.03,SSE,158,3.1,3.1,49,0.17,,,0.17,VWS V14.01,2013-08-26 22:31:00,
2013-08-26 17:36:00,96.6,74.3,29.03,SSE,158,2.5,3.6,49,0.17,,,0.17,VWS V14.01,2013-08-26 22:36:00,
2013-08-26 17:41:00,96.6,74.9,29.03,South,180,7.2,7.6,50,0.17,,,0.17,VWS V14.01,2013-08-26 22:41:00,
2013-08-26 17:46:00,96.3,74.6,29.03,SW,225,3.6,3.6,50,0.17,,,0.17,VWS V14.01,2013-08-26 22:46:00,
2013-08-26 17:51:00,95.9,74.3,29.03,SSE,158,2.5,2.5,50,0.17,,,0.17,VWS V14.01,2013-08-26 22:51:00,
2013-08-26 17:56:00,95.5,74.5,29.03,SSW,202,3.6,3.6,51,0.00,,,0.17,VWS V14.01,2013-08-26 22:56:00,
2013-08-26 18:01:00,95.5,74.5,29.03,SSE,158,3.1,3.8,51,0.00,,,0.17,VWS V14.01,2013-08-26 23:01:00,
2013-08-26 18:06:00,95.2,74.2,29.03,SSE,158,3.1,3.6,51,0.00,,,0.17,VWS V14.01,2013-08-26 23:06:00,
2013-08-26 18:11:00,95.0,74.6,29.03,SSW,202,4.0,4.0,52,0.00,,,0.17,VWS V14.01,2013-08-26 23:11:00,
2013-08-26 18:16:00,94.8,75.0,29.03,South,180,2.5,2.5,53,0.00,,,0.17,VWS V14.01,2013-08-26 23:16:00,
2013-08-26 18:22:00,94.5,75.3,29.03,SSE,158,1.3,4.9,54,0.00,,,0.17,VWS V14.01,2013-08-26 23:22:00,
2013-08-26 18:27:00,93.4,74.8,29.00,SSW,202,1.3,3.4,55,0.00,,,0.17,VWS V14.01,2013-08-26 23:27:00,
2013-08-26 18:32:00,93.0,75.5,29.00,SSE,158,4.3,4.3,57,0.00,,,0.17,VWS V14.01,2013-08-26 23:32:00,
2013-08-26 18:37:00,92.1,75.2,29.00,SSE,158,2.0,4.7,58,0.00,,,0.17,VWS V14.01,2013-08-26 23:37:00,
2013-08-26 18:42:00,91.6,75.7,29.00,South,180,3.1,4.7,60,0.00,,,0.17,VWS V14.01,2013-08-26 23:42:00,
2013-08-26 18:47:00,91.4,75.6,29.00,South,180,1.3,3.8,60,0.00,,,0.17,VWS V14.01,2013-08-26 23:47:00,
2013-08-26 18:52:00,91.0,75.7,29.00,West,270,3.1,3.1,61,0.00,,,0.17,VWS V14.01,2013-08-26 23:52:00,
2013-08-26 18:57:00,90.9,76.1,29.00,SE,135,2.0,2.7,62,0.00,,,0.17,VWS V14.01,2013-08-26 23:57:00,
2013-08-26 19:02:00,90.5,75.7,29.00,South,180,1.3,2.7,62,0.00,,,0.17,VWS V14.01,2013-08-27 00:02:00,
2013-08-26 19:07:00,90.1,75.8,29.00,SE,135,1.3,1.3,63,0.00,,,0.17,VWS V14.01,2013-08-27 00:07:00,
2013-08-26 19:12:00,89.8,76.0,29.03,SW,225,1.1,1.1,64,0.00,,,0.17,VWS V14.01,2013-08-27 00:12:00,
2013-08-26 19:17:00,89.6,75.8,29.03,SSW,202,2.2,2.2,64,0.00,,,0.17,VWS V14.01,2013-08-27 00:17:00,
2013-08-26 19:22:00,89.1,75.8,29.03,East,90,0.0,1.6,65,0.00,,,0.17,VWS V14.01,2013-08-27 00:22:00,
2013-08-26 19:27:00,88.5,75.7,29.00,SSE,158,0.0,0.0,66,0.00,,,0.17,VWS V14.01,2013-08-27 00:27:00,
2013-08-26 19:32:00,88.2,75.8,29.00,SSE,158,0.0,0.0,67,0.00,,,0.17,VWS V14.01,2013-08-27 00:32:00,
2013-08-26 19:37:00,87.8,75.9,29.00,SSE,158,0.0,0.0,68,0.00,,,0.17,VWS V14.01,2013-08-27 00:37:00,
2013-08-26 19:42:00,87.4,76.5,29.00,SE,135,2.0,2.0,70,0.00,,,0.17,VWS V14.01,2013-08-27 00:42:00,
2013-08-26 19:47:00,87.1,77.0,29.00,SE,135,0.0,0.0,72,0.00,,,0.17,VWS V14.01,2013-08-27 00:47:00,
2013-08-26 19:52:00,86.9,76.8,29.00,SSE,158,0.9,0.9,72,0.00,,,0.17,VWS V14.01,2013-08-27 00:52:00,
2013-08-26 19:57:00,86.7,77.0,29.00,South,180,1.6,1.6,73,0.00,,,0.17,VWS V14.01,2013-08-27 00:57:00,
2013-08-26 20:02:00,86.5,77.3,29.00,South,180,0.0,0.0,74,0.00,,,0.17,VWS V14.01,2013-08-27 01:02:00,
2013-08-26 20:08:00,86.2,76.9,29.00,South,180,0.0,0.0,74,0.00,,,0.17,VWS V14.01,2013-08-27 01:08:00,
2013-08-26 20:13:00,85.8,77.4,29.03,SE,135,0.0,1.1,76,0.00,,,0.17,VWS V14.01,2013-08-27 01:13:00,
2013-08-26 20:18:00,85.8,77.8,29.03,South,180,0.0,0.9,77,0.00,,,0.17,VWS V14.01,2013-08-27 01:18:00,
2013-08-26 20:23:00,85.5,77.4,29.00,South,180,1.1,1.6,77,0.00,,,0.17,VWS V14.01,2013-08-27 01:23:00,
2013-08-26 20:28:00,85.5,77.8,29.00,South,180,1.1,3.1,78,0.00,,,0.17,VWS V14.01,2013-08-27 01:28:00,
2013-08-26 20:33:00,85.5,77.8,29.00,SSW,202,0.0,2.5,78,0.00,,,0.17,VWS V14.01,2013-08-27 01:33:00,
2013-08-26 20:38:00,85.5,77.4,29.03,SW,225,0.0,2.0,77,0.00,,,0.17,VWS V14.01,2013-08-27 01:38:00,
2013-08-26 20:43:00,85.3,77.7,29.03,SW,225,0.9,6.3,78,0.00,,,0.17,VWS V14.01,2013-08-27 01:43:00,
2013-08-26 20:48:00,85.3,77.7,29.03,WSW,248,0.0,1.1,78,0.00,,,0.17,VWS V14.01,2013-08-27 01:48:00,
2013-08-26 20:53:00,85.1,77.5,29.03,SW,225,0.0,1.6,78,0.00,,,0.17,VWS V14.01,2013-08-27 01:53:00,
2013-08-26 20:58:00,85.1,77.5,29.03,NE,45,0.0,0.0,78,0.00,,,0.17,VWS V14.01,2013-08-27 01:58:00,
2013-08-26 21:03:00,84.7,77.1,29.03,ESE,112,0.0,0.9,78,0.00,,,0.17,VWS V14.01,2013-08-27 02:03:00,
2013-08-26 21:08:00,84.7,77.1,29.00,ESE,112,0.0,0.9,78,0.00,,,0.17,VWS V14.01,2013-08-27 02:08:00,
2013-08-26 21:13:00,84.6,77.3,29.00,SE,135,0.0,1.6,79,0.00,,,0.17,VWS V14.01,2013-08-27 02:13:00,
2013-08-26 21:18:00,84.4,76.8,29.00,SE,135,0.0,0.0,78,0.00,,,0.17,VWS V14.01,2013-08-27 02:18:00,
2013-08-26 21:23:00,84.2,77.0,29.00,SSE,158,0.0,0.0,79,0.00,,,0.17,VWS V14.01,2013-08-27 02:23:00,
2013-08-26 21:28:00,84.0,77.2,29.03,ENE,68,1.1,1.1,80,0.00,,,0.17,VWS V14.01,2013-08-27 02:28:00,
2013-08-26 21:33:00,83.7,76.8,29.03,SSE,158,0.0,0.0,80,0.00,,,0.17,VWS V14.01,2013-08-27 02:33:00,
2013-08-26 21:38:00,83.5,77.0,29.03,SE,135,0.0,0.0,81,0.00,,,0.17,VWS V14.01,2013-08-27 02:38:00,
2013-08-26 21:43:00,83.5,77.0,29.03,SSE,158,0.0,0.0,81,0.00,,,0.17,VWS V14.01,2013-08-27 02:43:00,
2013-08-26 21:48:00,83.3,76.9,29.03,ESE,112,0.0,0.0,81,0.00,,,0.17,VWS V14.01,2013-08-27 02:48:00,
2013-08-26 21:54:00,83.1,77.1,29.00,ESE,112,0.0,0.0,82,0.00,,,0.17,VWS V14.01,2013-08-27 02:54:00,
2013-08-26 21:59:00,82.9,77.2,29.00,SSW,202,1.3,1.3,83,0.00,,,0.17,VWS V14.01,2013-08-27 02:59:00,
2013-08-26 22:04:00,82.8,76.7,29.00,SE,135,0.0,0.0,82,0.00,,,0.17,VWS V14.01,2013-08-27 03:04:00,
2013-08-26 22:09:00,82.8,77.1,29.00,SE,135,0.0,0.0,83,0.00,,,0.17,VWS V14.01,2013-08-27 03:09:00,
2013-08-26 22:14:00,82.6,76.9,29.00,South,180,0.0,0.0,83,0.00,,,0.17,VWS V14.01,2013-08-27 03:14:00,
2013-08-26 22:19:00,82.4,77.1,29.00,South,180,0.0,0.0,84,0.00,,,0.17,VWS V14.01,2013-08-27 03:19:00,
2013-08-26 22:24:00,82.2,76.9,29.00,SE,135,0.0,0.0,84,0.00,,,0.17,VWS V14.01,2013-08-27 03:24:00,
2013-08-26 22:29:00,82.0,76.7,29.00,SE,135,0.0,0.0,84,0.00,,,0.17,VWS V14.01,2013-08-27 03:29:00,
2013-08-26 22:34:00,81.9,76.9,29.00,SSE,158,0.9,1.1,85,0.00,,,0.17,VWS V14.01,2013-08-27 03:34:00,
2013-08-26 22:39:00,81.9,76.9,29.00,SSE,158,0.9,1.1,85,0.00,,,0.17,VWS V14.01,2013-08-27 03:39:00,
2013-08-26 22:44:00,81.7,77.1,29.00,South,180,0.0,0.0,86,0.00,,,0.17,VWS V14.01,2013-08-27 03:44:00,
2013-08-26 22:49:00,81.7,76.7,29.00,SE,135,0.0,0.0,85,0.00,,,0.17,VWS V14.01,2013-08-27 03:49:00,
2013-08-26 22:54:00,81.7,77.1,29.00,SSE,158,0.0,2.2,86,0.00,,,0.17,VWS V14.01,2013-08-27 03:54:00,
2013-08-26 22:59:00,81.5,76.9,29.00,SE,135,0.0,0.0,86,0.00,,,0.17,VWS V14.01,2013-08-27 03:59:00,
2013-08-26 23:01:00,81.5,76.9,29.00,ESE,112,0.0,0.0,86,0.00,,,0.17,VWS V14.01,2013-08-27 04:01:00,
2013-08-26 23:05:00,81.5,76.9,29.00,ESE,112,0.0,0.0,86,0.00,,,0.17,VWS V14.01,2013-08-27 04:05:00,
2013-08-26 23:10:00,81.5,76.9,29.03,ESE,112,1.1,1.1,86,0.00,,,0.17,VWS V14.01,2013-08-27 04:10:00,
2013-08-26 23:15:00,81.5,76.6,29.03,ESE,112,0.0,0.9,85,0.00,,,0.17,VWS V14.01,2013-08-27 04:15:00,
2013-08-26 23:20:00,81.3,76.7,29.03,ESE,112,0.0,0.0,86,0.00,,,0.17,VWS V14.01,2013-08-27 04:20:00,
2013-08-26 23:25:00,81.1,76.6,29.03,ESE,112,0.0,0.0,86,0.00,,,0.17,VWS V14.01,2013-08-27 04:25:00,
2013-08-26 23:30:00,81.0,76.4,29.03,ESE,112,0.0,0.0,86,0.00,,,0.17,VWS V14.01,2013-08-27 04:30:00,
2013-08-26 23:35:00,80.8,76.2,29.03,ESE,112,0.0,0.0,86,0.00,,,0.17,VWS V14.01,2013-08-27 04:35:00,
2013-08-26 23:40:00,80.8,76.2,29.03,ESE,112,0.0,0.0,86,0.00,,,0.17,VWS V14.01,2013-08-27 04:40:00,
2013-08-26 23:45:00,80.6,76.0,29.03,ESE,112,0.0,0.0,86,0.00,,,0.17,VWS V14.01,2013-08-27 04:45:00,
2013-08-26 23:50:00,80.4,76.2,29.03,ESE,112,0.0,0.0,87,0.00,,,0.17,VWS V14.01,2013-08-27 04:50:00,
2013-08-26 23:55:00,80.2,76.0,29.03,ESE,112,0.0,0.0,87,0.00,,,0.17,VWS V14.01,2013-08-27 04:55:00,